sensor_id;sensor_type;location;lat;lon;timestamp;P1;durP1;ratioP1;P2;durP2;ratioP2
62957;SDS011;49056;48.352;10.926;2024-03-08T00:04:30;3.75;;;2.20;;
62957;SDS011;49056;48.352;10.926;2024-03-08T00:09:50;4.12;;;2.35;;
62957;SDS011;49056;48.352;10.926;2024-03-08T00:15:11;4.40;;;2.20;;
62957;SDS011;49056;48.352;10.926;2024-03-08T00:20:33;3.97;;;2.00;;
62957;SDS011;49056;48.352;10.926;2024-03-08T00:25:54;4.50;;;2.40;;
62957;SDS011;49056;48.352;10.926;2024-03-08T00:31:15;3.20;;;1.92;;
62957;SDS011;49056;48.352;10.926;2024-03-08T00:36:37;7.03;;;3.00;;
62957;SDS011;49056;48.352;10.926;2024-03-08T00:41:57;5.28;;;2.58;;
62957;SDS011;49056;48.352;10.926;2024-03-08T00:47:18;2.30;;;1.80;;
62957;SDS011;49056;48.352;10.926;2024-03-08T00:52:38;5.27;;;2.27;;
62957;SDS011;49056;48.352;10.926;2024-03-08T00:57:58;3.37;;;1.85;;
62957;SDS011;49056;48.352;10.926;2024-03-08T01:03:19;4.50;;;2.40;;
62957;SDS011;49056;48.352;10.926;2024-03-08T01:08:39;2.17;;;1.73;;
62957;SDS011;49056;48.352;10.926;2024-03-08T01:14:02;7.32;;;2.58;;
62957;SDS011;49056;48.352;10.926;2024-03-08T01:19:22;2.60;;;1.05;;
62957;SDS011;49056;48.352;10.926;2024-03-08T01:24:43;2.53;;;1.50;;
62957;SDS011;49056;48.352;10.926;2024-03-08T01:30:04;5.35;;;1.87;;
62957;SDS011;49056;48.352;10.926;2024-03-08T01:35:24;3.85;;;1.50;;
62957;SDS011;49056;48.352;10.926;2024-03-08T01:40:46;4.35;;;1.27;;
62957;SDS011;49056;48.352;10.926;2024-03-08T01:46:07;3.67;;;1.73;;
62957;SDS011;49056;48.352;10.926;2024-03-08T01:51:29;2.97;;;1.92;;
62957;SDS011;49056;48.352;10.926;2024-03-08T01:56:51;2.37;;;1.48;;
62957;SDS011;49056;48.352;10.926;2024-03-08T02:02:13;3.28;;;1.65;;
62957;SDS011;49056;48.352;10.926;2024-03-08T02:07:41;5.25;;;1.50;;
62957;SDS011;49056;48.352;10.926;2024-03-08T02:13:04;1.42;;;0.93;;
62957;SDS011;49056;48.352;10.926;2024-03-08T02:18:24;2.73;;;1.60;;
62957;SDS011;49056;48.352;10.926;2024-03-08T02:23:45;3.62;;;1.70;;
62957;SDS011;49056;48.352;10.926;2024-03-08T02:29:06;3.62;;;1.70;;
62957;SDS011;49056;48.352;10.926;2024-03-08T02:34:26;2.90;;;1.50;;
62957;SDS011;49056;48.352;10.926;2024-03-08T02:39:46;4.10;;;2.13;;
62957;SDS011;49056;48.352;10.926;2024-03-08T02:45:07;3.60;;;1.63;;
62957;SDS011;49056;48.352;10.926;2024-03-08T02:50:30;2.15;;;1.40;;
62957;SDS011;49056;48.352;10.926;2024-03-08T02:55:50;4.60;;;1.77;;
62957;SDS011;49056;48.352;10.926;2024-03-08T03:01:10;4.15;;;1.60;;
62957;SDS011;49056;48.352;10.926;2024-03-08T03:06:30;3.83;;;1.62;;
62957;SDS011;49056;48.352;10.926;2024-03-08T03:11:51;2.28;;;1.10;;
62957;SDS011;49056;48.352;10.926;2024-03-08T03:17:11;3.58;;;1.52;;
62957;SDS011;49056;48.352;10.926;2024-03-08T03:22:32;2.37;;;1.40;;
62957;SDS011;49056;48.352;10.926;2024-03-08T03:27:52;2.40;;;1.48;;
62957;SDS011;49056;48.352;10.926;2024-03-08T03:33:16;1.95;;;1.25;;
62957;SDS011;49056;48.352;10.926;2024-03-08T03:38:37;3.55;;;1.60;;
62957;SDS011;49056;48.352;10.926;2024-03-08T03:43:57;4.28;;;1.35;;
62957;SDS011;49056;48.352;10.926;2024-03-08T03:49:19;2.60;;;1.62;;
62957;SDS011;49056;48.352;10.926;2024-03-08T03:54:39;3.03;;;1.33;;
62957;SDS011;49056;48.352;10.926;2024-03-08T04:00:00;3.97;;;1.60;;
62957;SDS011;49056;48.352;10.926;2024-03-08T04:05:22;4.55;;;1.70;;
62957;SDS011;49056;48.352;10.926;2024-03-08T04:10:43;5.18;;;2.45;;
62957;SDS011;49056;48.352;10.926;2024-03-08T04:16:03;2.80;;;1.50;;
62957;SDS011;49056;48.352;10.926;2024-03-08T04:21:27;2.90;;;1.12;;
62957;SDS011;49056;48.352;10.926;2024-03-08T04:26:49;3.37;;;1.45;;
62957;SDS011;49056;48.352;10.926;2024-03-08T04:32:10;4.87;;;2.53;;
62957;SDS011;49056;48.352;10.926;2024-03-08T04:37:32;2.53;;;1.27;;
62957;SDS011;49056;48.352;10.926;2024-03-08T04:42:52;5.22;;;2.40;;
62957;SDS011;49056;48.352;10.926;2024-03-08T04:48:12;5.20;;;2.55;;
62957;SDS011;49056;48.352;10.926;2024-03-08T04:53:33;5.22;;;2.05;;
62957;SDS011;49056;48.352;10.926;2024-03-08T04:58:54;5.75;;;1.77;;
62957;SDS011;49056;48.352;10.926;2024-03-08T05:04:14;3.00;;;1.58;;
62957;SDS011;49056;48.352;10.926;2024-03-08T05:09:35;6.25;;;2.80;;
62957;SDS011;49056;48.352;10.926;2024-03-08T05:14:56;3.95;;;1.90;;
62957;SDS011;49056;48.352;10.926;2024-03-08T05:20:17;7.00;;;2.53;;
62957;SDS011;49056;48.352;10.926;2024-03-08T05:25:37;7.72;;;2.55;;
62957;SDS011;49056;48.352;10.926;2024-03-08T05:30:58;4.00;;;2.08;;
62957;SDS011;49056;48.352;10.926;2024-03-08T05:36:18;3.08;;;1.67;;
62957;SDS011;49056;48.352;10.926;2024-03-08T05:41:39;3.17;;;1.60;;
62957;SDS011;49056;48.352;10.926;2024-03-08T05:46:59;5.22;;;1.98;;
62957;SDS011;49056;48.352;10.926;2024-03-08T05:52:20;4.30;;;2.85;;
62957;SDS011;49056;48.352;10.926;2024-03-08T05:57:41;3.53;;;1.92;;
62957;SDS011;49056;48.352;10.926;2024-03-08T06:03:02;9.00;;;2.55;;
62957;SDS011;49056;48.352;10.926;2024-03-08T06:08:23;6.37;;;2.80;;
62957;SDS011;49056;48.352;10.926;2024-03-08T06:13:43;5.60;;;3.47;;
62957;SDS011;49056;48.352;10.926;2024-03-08T06:19:03;4.03;;;1.42;;
62957;SDS011;49056;48.352;10.926;2024-03-08T06:24:24;6.00;;;2.57;;
62957;SDS011;49056;48.352;10.926;2024-03-08T06:29:44;3.45;;;1.85;;
62957;SDS011;49056;48.352;10.926;2024-03-08T06:35:05;5.03;;;1.83;;
62957;SDS011;49056;48.352;10.926;2024-03-08T06:40:26;3.92;;;2.53;;
62957;SDS011;49056;48.352;10.926;2024-03-08T06:45:47;8.25;;;2.83;;
62957;SDS011;49056;48.352;10.926;2024-03-08T06:51:10;7.00;;;3.28;;
62957;SDS011;49056;48.352;10.926;2024-03-08T06:56:31;4.93;;;2.62;;
62957;SDS011;49056;48.352;10.926;2024-03-08T07:01:51;3.67;;;2.22;;
62957;SDS011;49056;48.352;10.926;2024-03-08T07:07:14;5.57;;;2.80;;
62957;SDS011;49056;48.352;10.926;2024-03-08T07:12:35;5.82;;;2.85;;
62957;SDS011;49056;48.352;10.926;2024-03-08T07:17:56;6.32;;;2.25;;
62957;SDS011;49056;48.352;10.926;2024-03-08T07:23:16;3.87;;;2.10;;
62957;SDS011;49056;48.352;10.926;2024-03-08T07:28:57;8.25;;;3.42;;
62957;SDS011;49056;48.352;10.926;2024-03-08T07:34:19;8.52;;;3.45;;
62957;SDS011;49056;48.352;10.926;2024-03-08T07:39:41;5.57;;;2.95;;
62957;SDS011;49056;48.352;10.926;2024-03-08T07:45:01;8.90;;;2.60;;
62957;SDS011;49056;48.352;10.926;2024-03-08T07:50:22;10.00;;;3.78;;
62957;SDS011;49056;48.352;10.926;2024-03-08T07:55:42;4.72;;;1.65;;
62957;SDS011;49056;48.352;10.926;2024-03-08T08:01:04;7.22;;;2.47;;
62957;SDS011;49056;48.352;10.926;2024-03-08T08:06:25;5.97;;;2.83;;
62957;SDS011;49056;48.352;10.926;2024-03-08T08:11:45;6.97;;;3.62;;
62957;SDS011;49056;48.352;10.926;2024-03-08T08:17:05;4.82;;;2.40;;
62957;SDS011;49056;48.352;10.926;2024-03-08T08:22:28;4.78;;;1.98;;
62957;SDS011;49056;48.352;10.926;2024-03-08T08:27:48;5.50;;;2.37;;
62957;SDS011;49056;48.352;10.926;2024-03-08T08:33:08;5.85;;;2.22;;
62957;SDS011;49056;48.352;10.926;2024-03-08T08:38:29;10.20;;;4.00;;
62957;SDS011;49056;48.352;10.926;2024-03-08T08:43:49;6.50;;;3.25;;
62957;SDS011;49056;48.352;10.926;2024-03-08T08:49:09;6.57;;;3.78;;
62957;SDS011;49056;48.352;10.926;2024-03-08T08:54:36;6.40;;;3.72;;
62957;SDS011;49056;48.352;10.926;2024-03-08T08:59:56;7.37;;;3.78;;
62957;SDS011;49056;48.352;10.926;2024-03-08T09:05:17;6.45;;;2.72;;
62957;SDS011;49056;48.352;10.926;2024-03-08T09:10:38;4.80;;;2.17;;
62957;SDS011;49056;48.352;10.926;2024-03-08T09:15:59;7.07;;;4.43;;
62957;SDS011;49056;48.352;10.926;2024-03-08T09:21:19;9.50;;;3.83;;
62957;SDS011;49056;48.352;10.926;2024-03-08T09:26:40;8.57;;;3.13;;
62957;SDS011;49056;48.352;10.926;2024-03-08T09:32:02;8.10;;;3.80;;
62957;SDS011;49056;48.352;10.926;2024-03-08T09:37:23;6.18;;;2.55;;
62957;SDS011;49056;48.352;10.926;2024-03-08T09:42:43;9.15;;;2.58;;
62957;SDS011;49056;48.352;10.926;2024-03-08T09:48:03;10.82;;;3.87;;
62957;SDS011;49056;48.352;10.926;2024-03-08T09:53:24;6.00;;;2.15;;
62957;SDS011;49056;48.352;10.926;2024-03-08T09:58:44;6.90;;;4.20;;
62957;SDS011;49056;48.352;10.926;2024-03-08T10:04:23;5.10;;;2.75;;
62957;SDS011;49056;48.352;10.926;2024-03-08T10:09:43;7.82;;;4.12;;
62957;SDS011;49056;48.352;10.926;2024-03-08T10:15:09;5.93;;;1.90;;
62957;SDS011;49056;48.352;10.926;2024-03-08T10:20:33;5.72;;;3.45;;
62957;SDS011;49056;48.352;10.926;2024-03-08T10:25:53;5.20;;;2.33;;
62957;SDS011;49056;48.352;10.926;2024-03-08T10:31:15;5.70;;;3.03;;
62957;SDS011;49056;48.352;10.926;2024-03-08T10:36:35;8.20;;;3.83;;
62957;SDS011;49056;48.352;10.926;2024-03-08T10:41:56;6.22;;;2.85;;
62957;SDS011;49056;48.352;10.926;2024-03-08T10:47:18;4.60;;;3.00;;
62957;SDS011;49056;48.352;10.926;2024-03-08T10:52:39;7.20;;;2.72;;
62957;SDS011;49056;48.352;10.926;2024-03-08T10:58:00;5.55;;;2.62;;
62957;SDS011;49056;48.352;10.926;2024-03-08T11:08:59;7.80;;;2.12;;
62957;SDS011;49056;48.352;10.926;2024-03-08T11:15:02;10.77;;;5.10;;
62957;SDS011;49056;48.352;10.926;2024-03-08T11:20:04;8.20;;;3.72;;
62957;SDS011;49056;48.352;10.926;2024-03-08T11:25:31;6.80;;;3.80;;
62957;SDS011;49056;48.352;10.926;2024-03-08T11:36:22;4.95;;;1.98;;
62957;SDS011;49056;48.352;10.926;2024-03-08T11:41:44;7.45;;;3.95;;
62957;SDS011;49056;48.352;10.926;2024-03-08T11:47:12;5.35;;;2.42;;
62957;SDS011;49056;48.352;10.926;2024-03-08T11:52:34;7.07;;;3.65;;
62957;SDS011;49056;48.352;10.926;2024-03-08T11:58:04;5.65;;;3.25;;
62957;SDS011;49056;48.352;10.926;2024-03-08T12:03:24;5.90;;;2.90;;
62957;SDS011;49056;48.352;10.926;2024-03-08T12:08:45;5.32;;;2.90;;
62957;SDS011;49056;48.352;10.926;2024-03-08T12:14:09;7.40;;;3.17;;
62957;SDS011;49056;48.352;10.926;2024-03-08T12:19:30;6.60;;;3.50;;
62957;SDS011;49056;48.352;10.926;2024-03-08T12:25:03;8.00;;;3.80;;
62957;SDS011;49056;48.352;10.926;2024-03-08T12:30:26;7.53;;;3.03;;
62957;SDS011;49056;48.352;10.926;2024-03-08T12:35:53;7.85;;;2.95;;
62957;SDS011;49056;48.352;10.926;2024-03-08T12:41:17;7.72;;;3.20;;
62957;SDS011;49056;48.352;10.926;2024-03-08T12:46:38;6.20;;;3.15;;
62957;SDS011;49056;48.352;10.926;2024-03-08T12:52:08;6.37;;;2.70;;
62957;SDS011;49056;48.352;10.926;2024-03-08T12:57:29;6.95;;;3.58;;
62957;SDS011;49056;48.352;10.926;2024-03-08T13:02:49;5.90;;;2.78;;
62957;SDS011;49056;48.352;10.926;2024-03-08T13:08:13;5.82;;;3.05;;
62957;SDS011;49056;48.352;10.926;2024-03-08T13:13:33;6.00;;;3.50;;
62957;SDS011;49056;48.352;10.926;2024-03-08T13:18:56;6.65;;;3.15;;
62957;SDS011;49056;48.352;10.926;2024-03-08T13:24:17;8.75;;;4.80;;
62957;SDS011;49056;48.352;10.926;2024-03-08T13:29:39;6.28;;;3.12;;
62957;SDS011;49056;48.352;10.926;2024-03-08T13:34:59;6.87;;;3.53;;
62957;SDS011;49056;48.352;10.926;2024-03-08T13:40:19;6.07;;;2.60;;
62957;SDS011;49056;48.352;10.926;2024-03-08T13:45:40;3.87;;;2.43;;
62957;SDS011;49056;48.352;10.926;2024-03-08T13:51:01;7.90;;;3.53;;
62957;SDS011;49056;48.352;10.926;2024-03-08T13:56:21;6.90;;;4.10;;
62957;SDS011;49056;48.352;10.926;2024-03-08T14:01:41;6.22;;;3.00;;
62957;SDS011;49056;48.352;10.926;2024-03-08T14:07:03;6.55;;;3.33;;
62957;SDS011;49056;48.352;10.926;2024-03-08T14:12:24;6.22;;;3.03;;
62957;SDS011;49056;48.352;10.926;2024-03-08T14:17:51;6.70;;;2.80;;
62957;SDS011;49056;48.352;10.926;2024-03-08T14:23:12;7.53;;;4.25;;
62957;SDS011;49056;48.352;10.926;2024-03-08T14:28:32;7.35;;;3.53;;
62957;SDS011;49056;48.352;10.926;2024-03-08T14:33:53;6.20;;;3.37;;
62957;SDS011;49056;48.352;10.926;2024-03-08T14:39:13;7.77;;;4.00;;
62957;SDS011;49056;48.352;10.926;2024-03-08T14:44:34;5.80;;;2.85;;
62957;SDS011;49056;48.352;10.926;2024-03-08T14:49:54;5.37;;;2.45;;
62957;SDS011;49056;48.352;10.926;2024-03-08T14:55:15;4.75;;;1.90;;
62957;SDS011;49056;48.352;10.926;2024-03-08T15:00:36;9.40;;;2.90;;
62957;SDS011;49056;48.352;10.926;2024-03-08T15:05:58;7.47;;;3.83;;
62957;SDS011;49056;48.352;10.926;2024-03-08T15:11:18;5.35;;;2.25;;
62957;SDS011;49056;48.352;10.926;2024-03-08T15:16:41;6.62;;;3.20;;
62957;SDS011;49056;48.352;10.926;2024-03-08T15:22:02;5.85;;;2.83;;
62957;SDS011;49056;48.352;10.926;2024-03-08T15:27:22;5.90;;;3.40;;
62957;SDS011;49056;48.352;10.926;2024-03-08T15:32:44;3.28;;;1.60;;
62957;SDS011;49056;48.352;10.926;2024-03-08T15:38:04;6.22;;;2.90;;
62957;SDS011;49056;48.352;10.926;2024-03-08T15:43:24;4.73;;;2.93;;
62957;SDS011;49056;48.352;10.926;2024-03-08T15:48:48;5.70;;;2.10;;
62957;SDS011;49056;48.352;10.926;2024-03-08T15:54:09;4.05;;;2.17;;
62957;SDS011;49056;48.352;10.926;2024-03-08T15:59:30;5.32;;;2.35;;
62957;SDS011;49056;48.352;10.926;2024-03-08T16:04:54;3.72;;;2.10;;
62957;SDS011;49056;48.352;10.926;2024-03-08T16:10:14;6.70;;;2.90;;
62957;SDS011;49056;48.352;10.926;2024-03-08T16:15:34;4.45;;;2.03;;
62957;SDS011;49056;48.352;10.926;2024-03-08T16:20:55;3.72;;;2.03;;
62957;SDS011;49056;48.352;10.926;2024-03-08T16:26:16;3.35;;;1.55;;
62957;SDS011;49056;48.352;10.926;2024-03-08T16:31:36;3.97;;;2.30;;
62957;SDS011;49056;48.352;10.926;2024-03-08T16:36:57;5.45;;;2.45;;
62957;SDS011;49056;48.352;10.926;2024-03-08T16:42:18;3.17;;;1.87;;
62957;SDS011;49056;48.352;10.926;2024-03-08T16:47:41;4.10;;;1.98;;
62957;SDS011;49056;48.352;10.926;2024-03-08T16:53:02;4.45;;;2.00;;
62957;SDS011;49056;48.352;10.926;2024-03-08T16:58:25;2.90;;;1.50;;
62957;SDS011;49056;48.352;10.926;2024-03-08T17:03:46;5.77;;;2.67;;
62957;SDS011;49056;48.352;10.926;2024-03-08T17:09:06;3.37;;;2.33;;
62957;SDS011;49056;48.352;10.926;2024-03-08T17:14:31;3.42;;;1.58;;
62957;SDS011;49056;48.352;10.926;2024-03-08T17:19:52;2.97;;;1.52;;
62957;SDS011;49056;48.352;10.926;2024-03-08T17:25:12;3.87;;;1.80;;
62957;SDS011;49056;48.352;10.926;2024-03-08T17:30:35;3.25;;;1.80;;
62957;SDS011;49056;48.352;10.926;2024-03-08T17:36:00;4.32;;;2.00;;
62957;SDS011;49056;48.352;10.926;2024-03-08T17:41:20;3.87;;;2.05;;
62957;SDS011;49056;48.352;10.926;2024-03-08T17:46:43;3.12;;;1.52;;
62957;SDS011;49056;48.352;10.926;2024-03-08T17:52:03;4.03;;;1.52;;
62957;SDS011;49056;48.352;10.926;2024-03-08T17:57:24;2.67;;;1.33;;
62957;SDS011;49056;48.352;10.926;2024-03-08T18:02:45;4.97;;;1.98;;
62957;SDS011;49056;48.352;10.926;2024-03-08T18:08:10;4.12;;;2.50;;
62957;SDS011;49056;48.352;10.926;2024-03-08T18:13:31;3.58;;;1.87;;
62957;SDS011;49056;48.352;10.926;2024-03-08T18:18:52;4.43;;;2.12;;
62957;SDS011;49056;48.352;10.926;2024-03-08T18:24:13;3.75;;;2.22;;
62957;SDS011;49056;48.352;10.926;2024-03-08T18:29:33;4.05;;;2.05;;
62957;SDS011;49056;48.352;10.926;2024-03-08T18:34:53;2.78;;;1.37;;
62957;SDS011;49056;48.352;10.926;2024-03-08T18:40:14;3.23;;;1.53;;
62957;SDS011;49056;48.352;10.926;2024-03-08T18:45:35;2.65;;;1.67;;
62957;SDS011;49056;48.352;10.926;2024-03-08T18:50:56;4.25;;;2.08;;
62957;SDS011;49056;48.352;10.926;2024-03-08T18:56:19;2.15;;;1.17;;
62957;SDS011;49056;48.352;10.926;2024-03-08T19:01:39;3.72;;;1.85;;
62957;SDS011;49056;48.352;10.926;2024-03-08T19:07:01;2.08;;;1.10;;
62957;SDS011;49056;48.352;10.926;2024-03-08T19:12:21;3.05;;;1.48;;
62957;SDS011;49056;48.352;10.926;2024-03-08T19:17:42;3.00;;;1.45;;
62957;SDS011;49056;48.352;10.926;2024-03-08T19:23:03;3.85;;;1.65;;
62957;SDS011;49056;48.352;10.926;2024-03-08T19:28:25;4.03;;;2.15;;
62957;SDS011;49056;48.352;10.926;2024-03-08T19:33:45;2.00;;;1.45;;
62957;SDS011;49056;48.352;10.926;2024-03-08T19:39:06;3.50;;;1.60;;
62957;SDS011;49056;48.352;10.926;2024-03-08T19:44:30;3.35;;;1.45;;
62957;SDS011;49056;48.352;10.926;2024-03-08T19:49:50;4.53;;;2.00;;
62957;SDS011;49056;48.352;10.926;2024-03-08T19:55:14;4.40;;;1.98;;
62957;SDS011;49056;48.352;10.926;2024-03-08T20:00:36;4.47;;;1.85;;
62957;SDS011;49056;48.352;10.926;2024-03-08T20:05:56;3.37;;;1.80;;
62957;SDS011;49056;48.352;10.926;2024-03-08T20:11:18;3.25;;;1.65;;
62957;SDS011;49056;48.352;10.926;2024-03-08T20:16:39;3.05;;;1.42;;
62957;SDS011;49056;48.352;10.926;2024-03-08T20:22:00;4.35;;;1.58;;
62957;SDS011;49056;48.352;10.926;2024-03-08T20:27:21;4.37;;;2.15;;
62957;SDS011;49056;48.352;10.926;2024-03-08T20:32:44;3.50;;;1.37;;
62957;SDS011;49056;48.352;10.926;2024-03-08T20:38:06;3.47;;;1.40;;
62957;SDS011;49056;48.352;10.926;2024-03-08T20:43:26;5.28;;;1.60;;
62957;SDS011;49056;48.352;10.926;2024-03-08T20:48:46;3.78;;;2.70;;
62957;SDS011;49056;48.352;10.926;2024-03-08T20:54:09;4.18;;;2.20;;
62957;SDS011;49056;48.352;10.926;2024-03-08T20:59:30;3.92;;;1.75;;
62957;SDS011;49056;48.352;10.926;2024-03-08T21:04:50;3.42;;;1.83;;
62957;SDS011;49056;48.352;10.926;2024-03-08T21:10:12;4.70;;;2.10;;
62957;SDS011;49056;48.352;10.926;2024-03-08T21:15:34;2.35;;;1.37;;
62957;SDS011;49056;48.352;10.926;2024-03-08T21:20:54;4.22;;;2.03;;
62957;SDS011;49056;48.352;10.926;2024-03-08T21:26:15;2.55;;;1.70;;
62957;SDS011;49056;48.352;10.926;2024-03-08T21:31:37;3.28;;;1.65;;
62957;SDS011;49056;48.352;10.926;2024-03-08T21:36:58;2.70;;;1.40;;
62957;SDS011;49056;48.352;10.926;2024-03-08T21:42:19;3.08;;;1.65;;
62957;SDS011;49056;48.352;10.926;2024-03-08T21:47:39;2.22;;;1.65;;
62957;SDS011;49056;48.352;10.926;2024-03-08T21:53:00;3.15;;;1.40;;
62957;SDS011;49056;48.352;10.926;2024-03-08T21:58:21;2.42;;;1.25;;
62957;SDS011;49056;48.352;10.926;2024-03-08T22:03:41;3.42;;;1.42;;
62957;SDS011;49056;48.352;10.926;2024-03-08T22:09:03;2.17;;;1.55;;
62957;SDS011;49056;48.352;10.926;2024-03-08T22:14:26;2.53;;;1.33;;
62957;SDS011;49056;48.352;10.926;2024-03-08T22:19:47;3.22;;;1.80;;
62957;SDS011;49056;48.352;10.926;2024-03-08T22:25:07;5.57;;;1.58;;
62957;SDS011;49056;48.352;10.926;2024-03-08T22:30:27;2.13;;;1.30;;
62957;SDS011;49056;48.352;10.926;2024-03-08T22:35:47;2.50;;;1.25;;
62957;SDS011;49056;48.352;10.926;2024-03-08T22:41:08;2.20;;;1.37;;
62957;SDS011;49056;48.352;10.926;2024-03-08T22:46:29;1.77;;;1.08;;
62957;SDS011;49056;48.352;10.926;2024-03-08T22:51:51;3.62;;;1.42;;
62957;SDS011;49056;48.352;10.926;2024-03-08T22:57:12;2.92;;;1.40;;
62957;SDS011;49056;48.352;10.926;2024-03-08T23:02:36;3.37;;;1.62;;
62957;SDS011;49056;48.352;10.926;2024-03-08T23:07:57;2.55;;;0.88;;
62957;SDS011;49056;48.352;10.926;2024-03-08T23:13:19;3.35;;;1.42;;
62957;SDS011;49056;48.352;10.926;2024-03-08T23:18:39;3.63;;;1.30;;
62957;SDS011;49056;48.352;10.926;2024-03-08T23:24:03;2.17;;;0.93;;
62957;SDS011;49056;48.352;10.926;2024-03-08T23:29:25;4.22;;;1.33;;
62957;SDS011;49056;48.352;10.926;2024-03-08T23:34:45;2.78;;;1.60;;
62957;SDS011;49056;48.352;10.926;2024-03-08T23:40:05;2.42;;;1.08;;
62957;SDS011;49056;48.352;10.926;2024-03-08T23:45:28;2.35;;;1.58;;
62957;SDS011;49056;48.352;10.926;2024-03-08T23:50:50;3.08;;;1.52;;
62957;SDS011;49056;48.352;10.926;2024-03-08T23:56:11;3.42;;;1.40;;
